sensor_id;sensor_type;location;lat;lon;timestamp;P1;durP1;ratioP1;P2;durP2;ratioP2
52542;SDS011;38449;52.696;6.186;2022-10-31T00:00:16;16.65;;;10.88;;
52542;SDS011;38449;52.696;6.186;2022-10-31T00:02:42;17.17;;;10.75;;
52542;SDS011;38449;52.696;6.186;2022-10-31T00:05:08;19.42;;;11.40;;
52542;SDS011;38449;52.696;6.186;2022-10-31T00:07:33;16.00;;;11.43;;
52542;SDS011;38449;52.696;6.186;2022-10-31T00:09:59;17.63;;;11.80;;
52542;SDS011;38449;52.696;6.186;2022-10-31T00:12:25;16.73;;;11.13;;
52542;SDS011;38449;52.696;6.186;2022-10-31T00:14:51;15.93;;;10.98;;
52542;SDS011;38449;52.696;6.186;2022-10-31T00:17:17;18.65;;;11.65;;
52542;SDS011;38449;52.696;6.186;2022-10-31T00:19:43;20.05;;;11.80;;
52542;SDS011;38449;52.696;6.186;2022-10-31T00:22:08;18.25;;;11.40;;
52542;SDS011;38449;52.696;6.186;2022-10-31T00:24:34;17.50;;;10.85;;
52542;SDS011;38449;52.696;6.186;2022-10-31T00:27:00;20.67;;;11.07;;
52542;SDS011;38449;52.696;6.186;2022-10-31T00:29:25;14.13;;;10.32;;
52542;SDS011;38449;52.696;6.186;2022-10-31T00:31:51;18.25;;;11.45;;
52542;SDS011;38449;52.696;6.186;2022-10-31T00:34:17;15.82;;;10.52;;
52542;SDS011;38449;52.696;6.186;2022-10-31T00:36:43;16.00;;;9.80;;
52542;SDS011;38449;52.696;6.186;2022-10-31T00:39:08;13.48;;;10.18;;
52542;SDS011;38449;52.696;6.186;2022-10-31T00:41:34;15.98;;;10.05;;
52542;SDS011;38449;52.696;6.186;2022-10-31T00:43:59;15.57;;;9.50;;
52542;SDS011;38449;52.696;6.186;2022-10-31T00:46:25;16.25;;;9.40;;
52542;SDS011;38449;52.696;6.186;2022-10-31T00:48:51;16.70;;;9.68;;
52542;SDS011;38449;52.696;6.186;2022-10-31T00:51:16;12.05;;;8.70;;
52542;SDS011;38449;52.696;6.186;2022-10-31T00:53:42;12.52;;;8.65;;
52542;SDS011;38449;52.696;6.186;2022-10-31T00:56:08;13.30;;;9.02;;
52542;SDS011;38449;52.696;6.186;2022-10-31T00:58:33;13.32;;;8.13;;
52542;SDS011;38449;52.696;6.186;2022-10-31T01:00:59;10.23;;;8.00;;
52542;SDS011;38449;52.696;6.186;2022-10-31T01:03:25;13.85;;;8.40;;
52542;SDS011;38449;52.696;6.186;2022-10-31T01:06:03;12.82;;;8.50;;
52542;SDS011;38449;52.696;6.186;2022-10-31T01:08:36;13.98;;;7.65;;
52542;SDS011;38449;52.696;6.186;2022-10-31T01:11:07;10.88;;;8.07;;
52542;SDS011;38449;52.696;6.186;2022-10-31T01:13:38;10.20;;;7.30;;
52542;SDS011;38449;52.696;6.186;2022-10-31T01:16:05;11.70;;;7.43;;
52542;SDS011;38449;52.696;6.186;2022-10-31T01:18:31;12.30;;;7.72;;
52542;SDS011;38449;52.696;6.186;2022-10-31T01:21:02;13.23;;;7.60;;
52542;SDS011;38449;52.696;6.186;2022-10-31T01:23:38;10.25;;;7.45;;
52542;SDS011;38449;52.696;6.186;2022-10-31T01:26:11;12.48;;;7.03;;
52542;SDS011;38449;52.696;6.186;2022-10-31T01:28:38;10.95;;;7.13;;
52542;SDS011;38449;52.696;6.186;2022-10-31T01:31:08;8.82;;;7.00;;
52542;SDS011;38449;52.696;6.186;2022-10-31T01:33:34;11.52;;;7.70;;
52542;SDS011;38449;52.696;6.186;2022-10-31T01:36:01;12.00;;;7.43;;
52542;SDS011;38449;52.696;6.186;2022-10-31T01:38:36;10.00;;;7.60;;
52542;SDS011;38449;52.696;6.186;2022-10-31T01:41:01;11.88;;;7.53;;
52542;SDS011;38449;52.696;6.186;2022-10-31T01:43:44;11.80;;;7.60;;
52542;SDS011;38449;52.696;6.186;2022-10-31T01:46:19;11.57;;;7.38;;
52542;SDS011;38449;52.696;6.186;2022-10-31T01:48:57;12.85;;;7.72;;
52542;SDS011;38449;52.696;6.186;2022-10-31T01:51:30;14.18;;;8.02;;
52542;SDS011;38449;52.696;6.186;2022-10-31T01:54:06;13.35;;;7.90;;
52542;SDS011;38449;52.696;6.186;2022-10-31T01:56:37;11.60;;;7.50;;
52542;SDS011;38449;52.696;6.186;2022-10-31T01:59:06;12.05;;;7.90;;
52542;SDS011;38449;52.696;6.186;2022-10-31T02:01:33;12.27;;;7.60;;
52542;SDS011;38449;52.696;6.186;2022-10-31T02:04:00;13.30;;;8.38;;
52542;SDS011;38449;52.696;6.186;2022-10-31T02:06:33;15.95;;;8.43;;
52542;SDS011;38449;52.696;6.186;2022-10-31T02:09:06;13.95;;;8.63;;
52542;SDS011;38449;52.696;6.186;2022-10-31T02:11:32;13.88;;;8.73;;
52542;SDS011;38449;52.696;6.186;2022-10-31T02:13:59;11.00;;;8.02;;
52542;SDS011;38449;52.696;6.186;2022-10-31T02:16:27;11.35;;;7.82;;
52542;SDS011;38449;52.696;6.186;2022-10-31T02:18:53;16.35;;;8.18;;
52542;SDS011;38449;52.696;6.186;2022-10-31T02:21:23;12.55;;;8.30;;
52542;SDS011;38449;52.696;6.186;2022-10-31T02:24:45;16.92;;;8.80;;
52542;SDS011;38449;52.696;6.186;2022-10-31T02:26:58;14.77;;;8.98;;
52542;SDS011;38449;52.696;6.186;2022-10-31T02:37:34;13.02;;;8.95;;
52542;SDS011;38449;52.696;6.186;2022-10-31T02:40:15;15.38;;;9.75;;
52542;SDS011;38449;52.696;6.186;2022-10-31T02:42:52;15.20;;;9.23;;
52542;SDS011;38449;52.696;6.186;2022-10-31T02:45:48;16.77;;;9.82;;
52542;SDS011;38449;52.696;6.186;2022-10-31T02:48:25;13.25;;;9.15;;
52542;SDS011;38449;52.696;6.186;2022-10-31T02:50:54;20.02;;;9.52;;
52542;SDS011;38449;52.696;6.186;2022-10-31T02:53:22;15.35;;;9.02;;
52542;SDS011;38449;52.696;6.186;2022-10-31T02:56:09;14.23;;;9.52;;
52542;SDS011;38449;52.696;6.186;2022-10-31T02:58:40;16.02;;;9.73;;
52542;SDS011;38449;52.696;6.186;2022-10-31T03:01:20;11.93;;;9.07;;
52542;SDS011;38449;52.696;6.186;2022-10-31T03:03:58;12.77;;;9.18;;
52542;SDS011;38449;52.696;6.186;2022-10-31T03:09:37;14.25;;;9.43;;
52542;SDS011;38449;52.696;6.186;2022-10-31T03:12:26;14.75;;;10.57;;
52542;SDS011;38449;52.696;6.186;2022-10-31T03:15:06;16.65;;;9.93;;
52542;SDS011;38449;52.696;6.186;2022-10-31T03:17:53;15.38;;;10.32;;
52542;SDS011;38449;52.696;6.186;2022-10-31T03:20:40;15.10;;;10.13;;
52542;SDS011;38449;52.696;6.186;2022-10-31T03:23:11;14.57;;;9.88;;
52542;SDS011;38449;52.696;6.186;2022-10-31T03:25:41;17.52;;;10.73;;
52542;SDS011;38449;52.696;6.186;2022-10-31T03:28:08;14.82;;;10.30;;
52542;SDS011;38449;52.696;6.186;2022-10-31T03:30:36;15.88;;;10.05;;
52542;SDS011;38449;52.696;6.186;2022-10-31T03:33:06;13.95;;;10.50;;
52542;SDS011;38449;52.696;6.186;2022-10-31T03:35:34;17.67;;;10.20;;
52542;SDS011;38449;52.696;6.186;2022-10-31T03:38:03;14.32;;;10.50;;
52542;SDS011;38449;52.696;6.186;2022-10-31T03:40:30;16.30;;;10.52;;
52542;SDS011;38449;52.696;6.186;2022-10-31T03:42:59;14.65;;;10.75;;
52542;SDS011;38449;52.696;6.186;2022-10-31T03:45:30;14.23;;;10.48;;
52542;SDS011;38449;52.696;6.186;2022-10-31T03:47:57;15.20;;;10.68;;
52542;SDS011;38449;52.696;6.186;2022-10-31T03:50:25;16.70;;;10.68;;
52542;SDS011;38449;52.696;6.186;2022-10-31T03:52:57;14.90;;;10.65;;
52542;SDS011;38449;52.696;6.186;2022-10-31T03:58:21;14.52;;;10.45;;
52542;SDS011;38449;52.696;6.186;2022-10-31T04:00:50;16.17;;;11.00;;
52542;SDS011;38449;52.696;6.186;2022-10-31T04:03:18;17.38;;;11.15;;
52542;SDS011;38449;52.696;6.186;2022-10-31T04:05:49;13.18;;;10.02;;
52542;SDS011;38449;52.696;6.186;2022-10-31T04:08:17;16.08;;;11.07;;
52542;SDS011;38449;52.696;6.186;2022-10-31T04:10:47;15.20;;;11.35;;
52542;SDS011;38449;52.696;6.186;2022-10-31T04:13:17;16.20;;;10.93;;
52542;SDS011;38449;52.696;6.186;2022-10-31T04:15:48;17.05;;;10.88;;
52542;SDS011;38449;52.696;6.186;2022-10-31T04:18:16;17.40;;;11.50;;
52542;SDS011;38449;52.696;6.186;2022-10-31T04:20:41;13.88;;;10.77;;
52542;SDS011;38449;52.696;6.186;2022-10-31T04:23:25;16.98;;;10.90;;
52542;SDS011;38449;52.696;6.186;2022-10-31T04:25:51;14.45;;;10.60;;
52542;SDS011;38449;52.696;6.186;2022-10-31T04:28:17;15.18;;;10.88;;
52542;SDS011;38449;52.696;6.186;2022-10-31T04:30:43;13.90;;;10.35;;
52542;SDS011;38449;52.696;6.186;2022-10-31T04:33:09;14.27;;;10.88;;
52542;SDS011;38449;52.696;6.186;2022-10-31T04:35:35;14.77;;;10.30;;
52542;SDS011;38449;52.696;6.186;2022-10-31T04:38:00;13.48;;;10.63;;
52542;SDS011;38449;52.696;6.186;2022-10-31T04:40:26;17.88;;;11.70;;
52542;SDS011;38449;52.696;6.186;2022-10-31T04:42:51;15.10;;;10.95;;
52542;SDS011;38449;52.696;6.186;2022-10-31T04:45:17;14.23;;;10.55;;
52542;SDS011;38449;52.696;6.186;2022-10-31T04:47:43;16.50;;;11.63;;
52542;SDS011;38449;52.696;6.186;2022-10-31T04:50:08;17.10;;;10.95;;
52542;SDS011;38449;52.696;6.186;2022-10-31T04:52:40;14.23;;;11.00;;
52542;SDS011;38449;52.696;6.186;2022-10-31T04:55:06;17.25;;;12.10;;
52542;SDS011;38449;52.696;6.186;2022-10-31T04:57:39;18.45;;;11.75;;
52542;SDS011;38449;52.696;6.186;2022-10-31T05:00:09;17.83;;;11.70;;
52542;SDS011;38449;52.696;6.186;2022-10-31T05:02:57;18.60;;;12.07;;
52542;SDS011;38449;52.696;6.186;2022-10-31T05:05:23;18.20;;;12.35;;
52542;SDS011;38449;52.696;6.186;2022-10-31T05:07:50;19.23;;;12.88;;
52542;SDS011;38449;52.696;6.186;2022-10-31T05:10:17;18.02;;;13.18;;
52542;SDS011;38449;52.696;6.186;2022-10-31T05:12:48;18.35;;;12.82;;
52542;SDS011;38449;52.696;6.186;2022-10-31T05:15:18;16.30;;;13.00;;
52542;SDS011;38449;52.696;6.186;2022-10-31T05:17:45;17.73;;;12.55;;
52542;SDS011;38449;52.696;6.186;2022-10-31T05:20:11;17.23;;;13.10;;
52542;SDS011;38449;52.696;6.186;2022-10-31T05:22:41;19.27;;;12.52;;
52542;SDS011;38449;52.696;6.186;2022-10-31T05:25:08;19.92;;;12.40;;
52542;SDS011;38449;52.696;6.186;2022-10-31T05:27:34;18.33;;;12.68;;
52542;SDS011;38449;52.696;6.186;2022-10-31T05:29:59;19.17;;;13.82;;
52542;SDS011;38449;52.696;6.186;2022-10-31T05:32:25;18.48;;;12.68;;
52542;SDS011;38449;52.696;6.186;2022-10-31T05:34:50;15.27;;;12.82;;
52542;SDS011;38449;52.696;6.186;2022-10-31T05:37:16;17.58;;;12.70;;
52542;SDS011;38449;52.696;6.186;2022-10-31T05:39:41;16.05;;;12.57;;
52542;SDS011;38449;52.696;6.186;2022-10-31T05:42:07;18.27;;;13.13;;
52542;SDS011;38449;52.696;6.186;2022-10-31T05:44:32;17.75;;;13.40;;
52542;SDS011;38449;52.696;6.186;2022-10-31T05:46:58;20.05;;;14.25;;
52542;SDS011;38449;52.696;6.186;2022-10-31T05:49:23;17.80;;;12.80;;
52542;SDS011;38449;52.696;6.186;2022-10-31T05:51:49;16.88;;;12.80;;
52542;SDS011;38449;52.696;6.186;2022-10-31T05:54:14;15.00;;;12.23;;
52542;SDS011;38449;52.696;6.186;2022-10-31T05:56:40;14.75;;;11.82;;
52542;SDS011;38449;52.696;6.186;2022-10-31T05:59:06;16.55;;;12.45;;
52542;SDS011;38449;52.696;6.186;2022-10-31T06:01:31;16.10;;;12.45;;
52542;SDS011;38449;52.696;6.186;2022-10-31T06:03:57;19.45;;;12.07;;
52542;SDS011;38449;52.696;6.186;2022-10-31T06:06:22;16.88;;;12.23;;
52542;SDS011;38449;52.696;6.186;2022-10-31T06:08:48;15.32;;;11.45;;
52542;SDS011;38449;52.696;6.186;2022-10-31T06:11:13;14.60;;;11.13;;
52542;SDS011;38449;52.696;6.186;2022-10-31T06:13:39;15.88;;;11.95;;
52542;SDS011;38449;52.696;6.186;2022-10-31T06:16:04;16.27;;;12.32;;
52542;SDS011;38449;52.696;6.186;2022-10-31T06:18:30;15.13;;;12.95;;
52542;SDS011;38449;52.696;6.186;2022-10-31T06:20:56;17.92;;;12.50;;
52542;SDS011;38449;52.696;6.186;2022-10-31T06:23:21;16.65;;;12.73;;
52542;SDS011;38449;52.696;6.186;2022-10-31T06:25:50;19.38;;;14.43;;
52542;SDS011;38449;52.696;6.186;2022-10-31T06:28:16;17.27;;;14.02;;
52542;SDS011;38449;52.696;6.186;2022-10-31T06:30:42;15.98;;;12.63;;
52542;SDS011;38449;52.696;6.186;2022-10-31T06:33:08;15.90;;;12.15;;
52542;SDS011;38449;52.696;6.186;2022-10-31T06:35:33;15.18;;;12.25;;
52542;SDS011;38449;52.696;6.186;2022-10-31T06:37:59;14.65;;;12.02;;
52542;SDS011;38449;52.696;6.186;2022-10-31T06:40:24;14.23;;;11.75;;
52542;SDS011;38449;52.696;6.186;2022-10-31T06:42:57;16.27;;;13.35;;
52542;SDS011;38449;52.696;6.186;2022-10-31T06:45:23;14.13;;;12.45;;
52542;SDS011;38449;52.696;6.186;2022-10-31T06:47:52;15.75;;;12.82;;
52542;SDS011;38449;52.696;6.186;2022-10-31T06:50:19;16.80;;;13.27;;
52542;SDS011;38449;52.696;6.186;2022-10-31T06:55:18;14.20;;;12.02;;
52542;SDS011;38449;52.696;6.186;2022-10-31T06:57:55;15.98;;;12.60;;
52542;SDS011;38449;52.696;6.186;2022-10-31T07:00:23;17.00;;;12.95;;
52542;SDS011;38449;52.696;6.186;2022-10-31T07:03:31;15.63;;;12.65;;
52542;SDS011;38449;52.696;6.186;2022-10-31T07:05:38;19.27;;;13.02;;
52542;SDS011;38449;52.696;6.186;2022-10-31T07:08:06;17.00;;;13.75;;
52542;SDS011;38449;52.696;6.186;2022-10-31T07:10:34;14.45;;;12.90;;
52542;SDS011;38449;52.696;6.186;2022-10-31T07:13:01;14.75;;;13.15;;
52542;SDS011;38449;52.696;6.186;2022-10-31T07:15:29;17.40;;;14.27;;
52542;SDS011;38449;52.696;6.186;2022-10-31T07:18:00;17.13;;;14.73;;
52542;SDS011;38449;52.696;6.186;2022-10-31T07:20:27;17.85;;;14.98;;
52542;SDS011;38449;52.696;6.186;2022-10-31T07:22:53;17.67;;;14.70;;
52542;SDS011;38449;52.696;6.186;2022-10-31T07:25:19;21.20;;;13.68;;
52542;SDS011;38449;52.696;6.186;2022-10-31T07:27:45;20.83;;;14.52;;
52542;SDS011;38449;52.696;6.186;2022-10-31T07:30:11;19.02;;;15.02;;
52542;SDS011;38449;52.696;6.186;2022-10-31T07:32:40;17.70;;;14.43;;
52542;SDS011;38449;52.696;6.186;2022-10-31T07:35:07;17.45;;;12.93;;
52542;SDS011;38449;52.696;6.186;2022-10-31T07:37:34;18.73;;;14.90;;
52542;SDS011;38449;52.696;6.186;2022-10-31T07:40:00;16.58;;;13.60;;
52542;SDS011;38449;52.696;6.186;2022-10-31T07:42:26;15.73;;;13.40;;
52542;SDS011;38449;52.696;6.186;2022-10-31T07:44:52;16.70;;;13.75;;
52542;SDS011;38449;52.696;6.186;2022-10-31T07:47:18;19.15;;;15.18;;
52542;SDS011;38449;52.696;6.186;2022-10-31T07:49:43;18.52;;;14.52;;
52542;SDS011;38449;52.696;6.186;2022-10-31T07:52:09;17.60;;;13.90;;
52542;SDS011;38449;52.696;6.186;2022-10-31T07:54:34;17.10;;;13.90;;
52542;SDS011;38449;52.696;6.186;2022-10-31T07:57:00;19.52;;;15.05;;
52542;SDS011;38449;52.696;6.186;2022-10-31T07:59:25;17.63;;;14.75;;
52542;SDS011;38449;52.696;6.186;2022-10-31T08:01:52;17.27;;;15.02;;
52542;SDS011;38449;52.696;6.186;2022-10-31T08:04:18;17.90;;;14.85;;
52542;SDS011;38449;52.696;6.186;2022-10-31T08:06:43;18.10;;;16.13;;
52542;SDS011;38449;52.696;6.186;2022-10-31T08:09:09;19.65;;;16.80;;
52542;SDS011;38449;52.696;6.186;2022-10-31T08:11:34;21.55;;;17.27;;
52542;SDS011;38449;52.696;6.186;2022-10-31T08:14:00;18.17;;;16.27;;
52542;SDS011;38449;52.696;6.186;2022-10-31T08:16:26;19.75;;;17.27;;
52542;SDS011;38449;52.696;6.186;2022-10-31T08:18:52;20.95;;;17.27;;
52542;SDS011;38449;52.696;6.186;2022-10-31T08:21:20;19.33;;;16.45;;
52542;SDS011;38449;52.696;6.186;2022-10-31T08:23:45;21.65;;;17.75;;
52542;SDS011;38449;52.696;6.186;2022-10-31T08:26:11;19.98;;;16.55;;
52542;SDS011;38449;52.696;6.186;2022-10-31T08:28:37;23.45;;;18.33;;
52542;SDS011;38449;52.696;6.186;2022-10-31T08:31:02;21.30;;;17.40;;
52542;SDS011;38449;52.696;6.186;2022-10-31T08:33:28;21.88;;;17.77;;
52542;SDS011;38449;52.696;6.186;2022-10-31T08:35:53;23.10;;;18.48;;
52542;SDS011;38449;52.696;6.186;2022-10-31T08:38:19;24.02;;;18.42;;
52542;SDS011;38449;52.696;6.186;2022-10-31T08:40:47;25.40;;;19.75;;
52542;SDS011;38449;52.696;6.186;2022-10-31T08:43:14;23.08;;;20.20;;
52542;SDS011;38449;52.696;6.186;2022-10-31T08:45:40;24.90;;;20.13;;
52542;SDS011;38449;52.696;6.186;2022-10-31T08:48:11;25.25;;;20.70;;
52542;SDS011;38449;52.696;6.186;2022-10-31T08:50:38;25.38;;;20.92;;
52542;SDS011;38449;52.696;6.186;2022-10-31T08:53:06;28.73;;;21.65;;
52542;SDS011;38449;52.696;6.186;2022-10-31T08:55:42;26.40;;;21.20;;
52542;SDS011;38449;52.696;6.186;2022-10-31T08:58:10;24.58;;;20.70;;
52542;SDS011;38449;52.696;6.186;2022-10-31T09:00:37;24.55;;;19.92;;
52542;SDS011;38449;52.696;6.186;2022-10-31T09:03:04;24.85;;;19.60;;
52542;SDS011;38449;52.696;6.186;2022-10-31T09:05:32;23.90;;;20.00;;
52542;SDS011;38449;52.696;6.186;2022-10-31T09:07:58;26.27;;;19.65;;
52542;SDS011;38449;52.696;6.186;2022-10-31T09:10:25;25.33;;;20.73;;
52542;SDS011;38449;52.696;6.186;2022-10-31T09:12:58;23.60;;;19.52;;
52542;SDS011;38449;52.696;6.186;2022-10-31T09:15:26;24.00;;;20.27;;
52542;SDS011;38449;52.696;6.186;2022-10-31T09:17:53;28.83;;;21.60;;
52542;SDS011;38449;52.696;6.186;2022-10-31T09:20:19;26.52;;;20.30;;
52542;SDS011;38449;52.696;6.186;2022-10-31T09:22:45;23.73;;;20.25;;
52542;SDS011;38449;52.696;6.186;2022-10-31T09:25:11;26.58;;;19.52;;
52542;SDS011;38449;52.696;6.186;2022-10-31T09:27:37;26.30;;;19.73;;
52542;SDS011;38449;52.696;6.186;2022-10-31T09:30:03;25.98;;;21.52;;
52542;SDS011;38449;52.696;6.186;2022-10-31T09:32:29;24.67;;;20.15;;
52542;SDS011;38449;52.696;6.186;2022-10-31T09:34:55;26.58;;;20.80;;
52542;SDS011;38449;52.696;6.186;2022-10-31T09:37:20;23.02;;;19.40;;
52542;SDS011;38449;52.696;6.186;2022-10-31T09:39:46;25.63;;;19.38;;
52542;SDS011;38449;52.696;6.186;2022-10-31T09:48:08;26.35;;;19.88;;
52542;SDS011;38449;52.696;6.186;2022-10-31T09:51:18;25.10;;;19.17;;
52542;SDS011;38449;52.696;6.186;2022-10-31T09:53:54;26.83;;;20.23;;
52542;SDS011;38449;52.696;6.186;2022-10-31T09:56:28;27.73;;;20.98;;
52542;SDS011;38449;52.696;6.186;2022-10-31T09:58:57;28.08;;;21.23;;
52542;SDS011;38449;52.696;6.186;2022-10-31T10:09:51;30.27;;;21.70;;
52542;SDS011;38449;52.696;6.186;2022-10-31T10:15:53;28.00;;;20.88;;
52542;SDS011;38449;52.696;6.186;2022-10-31T10:18:19;24.13;;;20.05;;
52542;SDS011;38449;52.696;6.186;2022-10-31T10:26:37;24.20;;;18.08;;
52542;SDS011;38449;52.696;6.186;2022-10-31T10:29:19;23.08;;;18.38;;
52542;SDS011;38449;52.696;6.186;2022-10-31T10:32:00;23.10;;;17.42;;
52542;SDS011;38449;52.696;6.186;2022-10-31T10:34:35;22.35;;;16.02;;
52542;SDS011;38449;52.696;6.186;2022-10-31T10:39:52;20.80;;;15.90;;
52542;SDS011;38449;52.696;6.186;2022-10-31T10:42:21;21.75;;;14.30;;
52542;SDS011;38449;52.696;6.186;2022-10-31T10:45:16;17.80;;;14.05;;
52542;SDS011;38449;52.696;6.186;2022-10-31T10:53:39;17.52;;;13.48;;
52542;SDS011;38449;52.696;6.186;2022-10-31T10:57:32;16.80;;;12.65;;
52542;SDS011;38449;52.696;6.186;2022-10-31T10:59:31;18.38;;;13.55;;
52542;SDS011;38449;52.696;6.186;2022-10-31T11:01:56;16.58;;;12.45;;
52542;SDS011;38449;52.696;6.186;2022-10-31T11:04:34;15.77;;;12.70;;
52542;SDS011;38449;52.696;6.186;2022-10-31T11:07:09;16.52;;;12.52;;
52542;SDS011;38449;52.696;6.186;2022-10-31T11:09:35;16.33;;;12.38;;
52542;SDS011;38449;52.696;6.186;2022-10-31T11:12:21;16.42;;;11.73;;
52542;SDS011;38449;52.696;6.186;2022-10-31T11:15:05;18.88;;;12.00;;
52542;SDS011;38449;52.696;6.186;2022-10-31T11:17:42;16.40;;;10.93;;
52542;SDS011;38449;52.696;6.186;2022-10-31T11:22:37;18.85;;;12.02;;
52542;SDS011;38449;52.696;6.186;2022-10-31T11:25:22;13.65;;;11.38;;
52542;SDS011;38449;52.696;6.186;2022-10-31T11:31:11;15.50;;;12.50;;
52542;SDS011;38449;52.696;6.186;2022-10-31T11:36:03;15.48;;;11.52;;
52542;SDS011;38449;52.696;6.186;2022-10-31T11:38:52;18.10;;;12.68;;
52542;SDS011;38449;52.696;6.186;2022-10-31T11:41:39;15.25;;;11.20;;
52542;SDS011;38449;52.696;6.186;2022-10-31T11:44:16;17.83;;;11.52;;
52542;SDS011;38449;52.696;6.186;2022-10-31T11:46:48;14.07;;;10.50;;
52542;SDS011;38449;52.696;6.186;2022-10-31T11:51:57;17.83;;;12.10;;
52542;SDS011;38449;52.696;6.186;2022-10-31T11:54:33;17.75;;;11.63;;
52542;SDS011;38449;52.696;6.186;2022-10-31T11:57:04;14.30;;;11.68;;
52542;SDS011;38449;52.696;6.186;2022-10-31T11:59:30;16.30;;;11.88;;
52542;SDS011;38449;52.696;6.186;2022-10-31T12:01:58;15.13;;;11.02;;
52542;SDS011;38449;52.696;6.186;2022-10-31T12:04:59;15.02;;;11.40;;
52542;SDS011;38449;52.696;6.186;2022-10-31T12:07:23;15.35;;;11.52;;
52542;SDS011;38449;52.696;6.186;2022-10-31T12:09:49;16.10;;;11.73;;
52542;SDS011;38449;52.696;6.186;2022-10-31T12:15:04;16.15;;;11.07;;
52542;SDS011;38449;52.696;6.186;2022-10-31T12:17:48;17.67;;;11.82;;
52542;SDS011;38449;52.696;6.186;2022-10-31T12:23:33;15.65;;;11.38;;
52542;SDS011;38449;52.696;6.186;2022-10-31T12:43:05;17.48;;;12.02;;
52542;SDS011;38449;52.696;6.186;2022-10-31T12:46:19;17.25;;;11.25;;
52542;SDS011;38449;52.696;6.186;2022-10-31T12:49:14;14.98;;;10.63;;
52542;SDS011;38449;52.696;6.186;2022-10-31T12:59:59;14.80;;;10.20;;
52542;SDS011;38449;52.696;6.186;2022-10-31T13:02:33;14.93;;;10.32;;
52542;SDS011;38449;52.696;6.186;2022-10-31T13:05:06;14.93;;;9.52;;
52542;SDS011;38449;52.696;6.186;2022-10-31T13:13:33;15.63;;;9.35;;
52542;SDS011;38449;52.696;6.186;2022-10-31T13:16:04;13.15;;;9.07;;
52542;SDS011;38449;52.696;6.186;2022-10-31T13:18:39;17.52;;;9.05;;
52542;SDS011;38449;52.696;6.186;2022-10-31T13:21:27;14.05;;;9.10;;
52542;SDS011;38449;52.696;6.186;2022-10-31T13:24:16;14.60;;;9.38;;
52542;SDS011;38449;52.696;6.186;2022-10-31T13:26:50;16.38;;;9.57;;
52542;SDS011;38449;52.696;6.186;2022-10-31T13:31:54;14.30;;;9.65;;
52542;SDS011;38449;52.696;6.186;2022-10-31T13:34:23;17.83;;;9.55;;
52542;SDS011;38449;52.696;6.186;2022-10-31T13:37:38;15.47;;;9.63;;
52542;SDS011;38449;52.696;6.186;2022-10-31T13:45:15;16.25;;;9.90;;
52542;SDS011;38449;52.696;6.186;2022-10-31T13:47:43;12.70;;;9.63;;
52542;SDS011;38449;52.696;6.186;2022-10-31T13:50:29;18.73;;;9.68;;
52542;SDS011;38449;52.696;6.186;2022-10-31T13:53:13;17.17;;;9.27;;
52542;SDS011;38449;52.696;6.186;2022-10-31T13:55:43;14.57;;;9.48;;
52542;SDS011;38449;52.696;6.186;2022-10-31T13:58:19;16.98;;;10.05;;
52542;SDS011;38449;52.696;6.186;2022-10-31T14:01:25;13.80;;;8.82;;
52542;SDS011;38449;52.696;6.186;2022-10-31T14:03:45;18.25;;;9.75;;
52542;SDS011;38449;52.696;6.186;2022-10-31T14:06:12;13.95;;;9.25;;
52542;SDS011;38449;52.696;6.186;2022-10-31T14:08:41;13.32;;;10.15;;
52542;SDS011;38449;52.696;6.186;2022-10-31T14:11:21;15.13;;;8.85;;
52542;SDS011;38449;52.696;6.186;2022-10-31T14:13:51;15.38;;;10.00;;
52542;SDS011;38449;52.696;6.186;2022-10-31T14:16:30;15.00;;;9.25;;
52542;SDS011;38449;52.696;6.186;2022-10-31T14:21:42;17.38;;;9.40;;
52542;SDS011;38449;52.696;6.186;2022-10-31T14:24:30;16.00;;;9.95;;
52542;SDS011;38449;52.696;6.186;2022-10-31T14:29:31;16.20;;;9.98;;
52542;SDS011;38449;52.696;6.186;2022-10-31T14:32:06;16.38;;;10.27;;
52542;SDS011;38449;52.696;6.186;2022-10-31T14:34:42;16.30;;;10.73;;
52542;SDS011;38449;52.696;6.186;2022-10-31T14:40:49;14.30;;;10.02;;
52542;SDS011;38449;52.696;6.186;2022-10-31T14:43:30;14.98;;;9.30;;
52542;SDS011;38449;52.696;6.186;2022-10-31T14:51:59;16.20;;;10.10;;
52542;SDS011;38449;52.696;6.186;2022-10-31T14:54:27;16.35;;;10.15;;
52542;SDS011;38449;52.696;6.186;2022-10-31T14:57:05;17.85;;;10.77;;
52542;SDS011;38449;52.696;6.186;2022-10-31T14:59:50;17.30;;;10.05;;
52542;SDS011;38449;52.696;6.186;2022-10-31T15:02:24;13.40;;;9.80;;
52542;SDS011;38449;52.696;6.186;2022-10-31T15:04:54;14.57;;;10.23;;
52542;SDS011;38449;52.696;6.186;2022-10-31T15:07:22;15.05;;;10.73;;
52542;SDS011;38449;52.696;6.186;2022-10-31T15:09:56;15.95;;;10.70;;
52542;SDS011;38449;52.696;6.186;2022-10-31T15:12:27;16.52;;;10.30;;
52542;SDS011;38449;52.696;6.186;2022-10-31T15:14:54;18.73;;;11.35;;
52542;SDS011;38449;52.696;6.186;2022-10-31T15:17:21;18.92;;;13.45;;
52542;SDS011;38449;52.696;6.186;2022-10-31T15:19:51;18.52;;;13.07;;
52542;SDS011;38449;52.696;6.186;2022-10-31T15:22:18;15.30;;;10.65;;
52542;SDS011;38449;52.696;6.186;2022-10-31T15:24:47;17.02;;;11.05;;
52542;SDS011;38449;52.696;6.186;2022-10-31T15:27:15;18.88;;;11.38;;
52542;SDS011;38449;52.696;6.186;2022-10-31T15:29:48;18.10;;;12.60;;
52542;SDS011;38449;52.696;6.186;2022-10-31T15:32:20;16.10;;;11.30;;
52542;SDS011;38449;52.696;6.186;2022-10-31T15:34:48;16.65;;;12.27;;
52542;SDS011;38449;52.696;6.186;2022-10-31T15:37:16;16.00;;;11.82;;
52542;SDS011;38449;52.696;6.186;2022-10-31T15:39:43;15.45;;;11.77;;
52542;SDS011;38449;52.696;6.186;2022-10-31T15:42:17;16.15;;;11.93;;
52542;SDS011;38449;52.696;6.186;2022-10-31T15:45:15;17.80;;;12.30;;
52542;SDS011;38449;52.696;6.186;2022-10-31T15:50:25;15.60;;;12.48;;
52542;SDS011;38449;52.696;6.186;2022-10-31T15:53:16;16.35;;;11.63;;
52542;SDS011;38449;52.696;6.186;2022-10-31T15:55:45;18.17;;;11.65;;
52542;SDS011;38449;52.696;6.186;2022-10-31T15:58:20;16.83;;;11.95;;
52542;SDS011;38449;52.696;6.186;2022-10-31T16:00:56;20.60;;;11.80;;
52542;SDS011;38449;52.696;6.186;2022-10-31T16:03:25;18.42;;;11.95;;
52542;SDS011;38449;52.696;6.186;2022-10-31T16:05:54;17.50;;;12.00;;
52542;SDS011;38449;52.696;6.186;2022-10-31T16:08:22;17.13;;;11.57;;
52542;SDS011;38449;52.696;6.186;2022-10-31T16:10:58;15.18;;;11.90;;
52542;SDS011;38449;52.696;6.186;2022-10-31T16:13:41;17.13;;;11.77;;
52542;SDS011;38449;52.696;6.186;2022-10-31T16:16:18;15.85;;;10.95;;
52542;SDS011;38449;52.696;6.186;2022-10-31T16:18:47;22.90;;;13.75;;
52542;SDS011;38449;52.696;6.186;2022-10-31T16:21:14;14.93;;;11.02;;
52542;SDS011;38449;52.696;6.186;2022-10-31T16:23:44;16.90;;;12.23;;
52542;SDS011;38449;52.696;6.186;2022-10-31T16:26:14;14.93;;;10.30;;
52542;SDS011;38449;52.696;6.186;2022-10-31T16:28:52;14.75;;;11.02;;
52542;SDS011;38449;52.696;6.186;2022-10-31T16:31:30;14.45;;;10.65;;
52542;SDS011;38449;52.696;6.186;2022-10-31T16:34:01;14.55;;;10.40;;
52542;SDS011;38449;52.696;6.186;2022-10-31T16:36:46;17.92;;;11.75;;
52542;SDS011;38449;52.696;6.186;2022-10-31T16:39:12;15.52;;;10.52;;
52542;SDS011;38449;52.696;6.186;2022-10-31T16:41:39;14.85;;;10.50;;
52542;SDS011;38449;52.696;6.186;2022-10-31T16:44:14;17.70;;;10.32;;
52542;SDS011;38449;52.696;6.186;2022-10-31T16:46:42;18.17;;;11.25;;